sensor_id;sensor_type;location;lat;lon;timestamp;pressure;altitude;pressure_sealevel;temperature;humidity
36828;BME280;22766;48.042;11.192;2023-11-21T00:02:21;94505.88;;;6.99;100.00
36828;BME280;22766;48.042;11.192;2023-11-21T00:04:48;94504.38;;;6.96;100.00
36828;BME280;22766;48.042;11.192;2023-11-21T00:07:16;94498.22;;;6.89;100.00
36828;BME280;22766;48.042;11.192;2023-11-21T00:09:43;94493.41;;;6.77;100.00
36828;BME280;22766;48.042;11.192;2023-11-21T00:12:10;94490.63;;;6.88;100.00
36828;BME280;22766;48.042;11.192;2023-11-21T00:14:37;94482.47;;;6.75;100.00
36828;BME280;22766;48.042;11.192;2023-11-21T00:17:05;94484.91;;;6.76;100.00
36828;BME280;22766;48.042;11.192;2023-11-21T00:19:33;94480.72;;;6.75;100.00
36828;BME280;22766;48.042;11.192;2023-11-21T00:22:04;94465.22;;;6.67;100.00
36828;BME280;22766;48.042;11.192;2023-11-21T00:24:30;94461.25;;;6.55;100.00
36828;BME280;22766;48.042;11.192;2023-11-21T00:26:58;94467.25;;;6.63;100.00
36828;BME280;22766;48.042;11.192;2023-11-21T00:29:25;94459.59;;;6.54;100.00
36828;BME280;22766;48.042;11.192;2023-11-21T00:31:52;94461.78;;;6.49;100.00
36828;BME280;22766;48.042;11.192;2023-11-21T00:34:19;94455.59;;;6.51;100.00
36828;BME280;22766;48.042;11.192;2023-11-21T00:36:46;94451.66;;;6.57;100.00
36828;BME280;22766;48.042;11.192;2023-11-21T00:39:13;94448.00;;;6.50;100.00
36828;BME280;22766;48.042;11.192;2023-11-21T00:41:40;94449.78;;;6.49;100.00
36828;BME280;22766;48.042;11.192;2023-11-21T00:44:07;94452.75;;;6.45;100.00
36828;BME280;22766;48.042;11.192;2023-11-21T00:46:34;94459.13;;;6.41;100.00
36828;BME280;22766;48.042;11.192;2023-11-21T00:49:00;94460.16;;;6.48;100.00
36828;BME280;22766;48.042;11.192;2023-11-21T00:51:27;94455.03;;;6.48;100.00
36828;BME280;22766;48.042;11.192;2023-11-21T00:53:54;94460.00;;;6.59;100.00
36828;BME280;22766;48.042;11.192;2023-11-21T00:56:21;94454.91;;;6.49;100.00
36828;BME280;22766;48.042;11.192;2023-11-21T00:58:49;94449.28;;;6.36;100.00
36828;BME280;22766;48.042;11.192;2023-11-21T01:01:19;94448.06;;;6.31;100.00
36828;BME280;22766;48.042;11.192;2023-11-21T01:03:46;94454.69;;;6.33;100.00
36828;BME280;22766;48.042;11.192;2023-11-21T01:06:13;94454.69;;;6.33;100.00
36828;BME280;22766;48.042;11.192;2023-11-21T01:08:43;94456.75;;;6.20;100.00
36828;BME280;22766;48.042;11.192;2023-11-21T01:11:11;94454.47;;;6.17;100.00
36828;BME280;22766;48.042;11.192;2023-11-21T01:13:39;94457.84;;;6.18;100.00
36828;BME280;22766;48.042;11.192;2023-11-21T01:16:09;94453.25;;;6.12;100.00
36828;BME280;22766;48.042;11.192;2023-11-21T01:18:36;94455.13;;;6.19;100.00
36828;BME280;22766;48.042;11.192;2023-11-21T01:21:03;94454.44;;;6.27;100.00
36828;BME280;22766;48.042;11.192;2023-11-21T01:23:30;94455.91;;;6.29;100.00
36828;BME280;22766;48.042;11.192;2023-11-21T01:25:57;94459.44;;;6.28;100.00
36828;BME280;22766;48.042;11.192;2023-11-21T01:28:24;94449.84;;;6.30;100.00
36828;BME280;22766;48.042;11.192;2023-11-21T01:30:51;94454.41;;;6.36;100.00
36828;BME280;22766;48.042;11.192;2023-11-21T01:33:18;94455.50;;;6.34;100.00
36828;BME280;22766;48.042;11.192;2023-11-21T01:35:45;94454.72;;;6.24;100.00
36828;BME280;22766;48.042;11.192;2023-11-21T01:38:13;94459.84;;;6.24;100.00
36828;BME280;22766;48.042;11.192;2023-11-21T01:40:40;94464.91;;;6.43;100.00
36828;BME280;22766;48.042;11.192;2023-11-21T01:43:07;94464.25;;;6.78;100.00
36828;BME280;22766;48.042;11.192;2023-11-21T01:45:35;94465.88;;;6.69;100.00
36828;BME280;22766;48.042;11.192;2023-11-21T01:48:03;94466.09;;;6.85;100.00
36828;BME280;22766;48.042;11.192;2023-11-21T01:50:30;94475.16;;;6.80;100.00
36828;BME280;22766;48.042;11.192;2023-11-21T01:52:58;94474.09;;;7.00;100.00
36828;BME280;22766;48.042;11.192;2023-11-21T01:55:24;94479.53;;;6.97;100.00
36828;BME280;22766;48.042;11.192;2023-11-21T01:57:58;94470.81;;;7.07;100.00
36828;BME280;22766;48.042;11.192;2023-11-21T02:00:25;94472.97;;;7.12;100.00
36828;BME280;22766;48.042;11.192;2023-11-21T02:02:55;94473.69;;;7.04;100.00
36828;BME280;22766;48.042;11.192;2023-11-21T02:05:23;94476.00;;;6.98;100.00
36828;BME280;22766;48.042;11.192;2023-11-21T02:07:50;94478.81;;;7.04;100.00
36828;BME280;22766;48.042;11.192;2023-11-21T02:10:19;94481.16;;;6.98;100.00
36828;BME280;22766;48.042;11.192;2023-11-21T02:12:51;94477.50;;;7.00;100.00
36828;BME280;22766;48.042;11.192;2023-11-21T02:15:18;94472.50;;;6.99;100.00
36828;BME280;22766;48.042;11.192;2023-11-21T02:17:50;94478.09;;;7.12;100.00
36828;BME280;22766;48.042;11.192;2023-11-21T02:20:22;94477.50;;;7.00;100.00
36828;BME280;22766;48.042;11.192;2023-11-21T02:22:56;94474.78;;;7.02;100.00
36828;BME280;22766;48.042;11.192;2023-11-21T02:25:32;94463.44;;;7.22;100.00
36828;BME280;22766;48.042;11.192;2023-11-21T02:28:01;94470.22;;;6.96;100.00
36828;BME280;22766;48.042;11.192;2023-11-21T02:30:29;94466.69;;;6.70;100.00
36828;BME280;22766;48.042;11.192;2023-11-21T02:33:00;94466.69;;;6.70;100.00
36828;BME280;22766;48.042;11.192;2023-11-21T02:35:28;94467.97;;;6.56;100.00
36828;BME280;22766;48.042;11.192;2023-11-21T02:37:57;94465.13;;;6.59;100.00
36828;BME280;22766;48.042;11.192;2023-11-21T02:40:24;94467.38;;;6.99;100.00
36828;BME280;22766;48.042;11.192;2023-11-21T02:42:53;94472.03;;;6.86;100.00
36828;BME280;22766;48.042;11.192;2023-11-21T02:45:20;94467.94;;;6.93;100.00
36828;BME280;22766;48.042;11.192;2023-11-21T02:47:50;94456.41;;;7.06;100.00
36828;BME280;22766;48.042;11.192;2023-11-21T02:50:17;94455.38;;;6.90;100.00
36828;BME280;22766;48.042;11.192;2023-11-21T02:52:45;94446.81;;;6.81;100.00
36828;BME280;22766;48.042;11.192;2023-11-21T02:55:13;94449.97;;;6.66;100.00
36828;BME280;22766;48.042;11.192;2023-11-21T02:57:40;94448.34;;;6.74;100.00
36828;BME280;22766;48.042;11.192;2023-11-21T03:00:08;94452.50;;;6.75;100.00
36828;BME280;22766;48.042;11.192;2023-11-21T03:02:36;94451.94;;;6.81;100.00
36828;BME280;22766;48.042;11.192;2023-11-21T03:05:06;94449.69;;;6.96;100.00
36828;BME280;22766;48.042;11.192;2023-11-21T03:07:33;94456.50;;;6.87;100.00
36828;BME280;22766;48.042;11.192;2023-11-21T03:10:00;94457.06;;;6.81;100.00
36828;BME280;22766;48.042;11.192;2023-11-21T03:12:27;94462.66;;;6.67;100.00
36828;BME280;22766;48.042;11.192;2023-11-21T03:14:54;94462.66;;;6.67;100.00
36828;BME280;22766;48.042;11.192;2023-11-21T03:17:21;94452.97;;;6.88;100.00
36828;BME280;22766;48.042;11.192;2023-11-21T03:19:48;94450.25;;;6.90;100.00
36828;BME280;22766;48.042;11.192;2023-11-21T03:22:15;94446.91;;;6.89;100.00
36828;BME280;22766;48.042;11.192;2023-11-21T03:24:41;94448.56;;;6.81;100.00
36828;BME280;22766;48.042;11.192;2023-11-21T03:27:08;94449.47;;;7.07;100.00
36828;BME280;22766;48.042;11.192;2023-11-21T03:29:35;94442.16;;;7.12;100.00
36828;BME280;22766;48.042;11.192;2023-11-21T03:32:02;94449.41;;;6.99;100.00
36828;BME280;22766;48.042;11.192;2023-11-21T03:34:29;94448.44;;;7.00;100.00
36828;BME280;22766;48.042;11.192;2023-11-21T03:36:56;94446.22;;;6.87;100.00
36828;BME280;22766;48.042;11.192;2023-11-21T03:39:23;94453.25;;;6.85;100.00
36828;BME280;22766;48.042;11.192;2023-11-21T03:41:50;94456.19;;;6.90;100.00
36828;BME280;22766;48.042;11.192;2023-11-21T03:44:18;94457.34;;;6.78;100.00
36828;BME280;22766;48.042;11.192;2023-11-21T03:46:45;94454.09;;;6.86;100.00
36828;BME280;22766;48.042;11.192;2023-11-21T03:49:12;94457.69;;;6.93;100.00
36828;BME280;22766;48.042;11.192;2023-11-21T03:51:40;94462.84;;;7.10;100.00
36828;BME280;22766;48.042;11.192;2023-11-21T03:54:07;94461.59;;;7.14;100.00
36828;BME280;22766;48.042;11.192;2023-11-21T03:56:36;94469.34;;;7.05;100.00
36828;BME280;22766;48.042;11.192;2023-11-21T03:59:03;94471.13;;;7.04;100.00
36828;BME280;22766;48.042;11.192;2023-11-21T04:01:30;94474.63;;;7.03;100.00
36828;BME280;22766;48.042;11.192;2023-11-21T04:03:57;94469.06;;;7.08;100.00
36828;BME280;22766;48.042;11.192;2023-11-21T04:06:24;94474.88;;;7.10;100.00
36828;BME280;22766;48.042;11.192;2023-11-21T04:08:51;94466.44;;;7.17;100.00
36828;BME280;22766;48.042;11.192;2023-11-21T04:11:18;94475.47;;;7.21;100.00
36828;BME280;22766;48.042;11.192;2023-11-21T04:13:45;94471.75;;;6.89;100.00
36828;BME280;22766;48.042;11.192;2023-11-21T04:16:13;94470.88;;;6.98;100.00
36828;BME280;22766;48.042;11.192;2023-11-21T04:18:40;94463.91;;;6.90;100.00
36828;BME280;22766;48.042;11.192;2023-11-21T04:21:08;94468.03;;;7.01;100.00
36828;BME280;22766;48.042;11.192;2023-11-21T04:23:35;94474.81;;;6.65;100.00
36828;BME280;22766;48.042;11.192;2023-11-21T04:26:02;94471.16;;;6.68;100.00
36828;BME280;22766;48.042;11.192;2023-11-21T04:28:29;94475.66;;;6.93;100.00
36828;BME280;22766;48.042;11.192;2023-11-21T04:30:56;94475.75;;;7.01;100.00
36828;BME280;22766;48.042;11.192;2023-11-21T04:33:23;94479.91;;;6.75;100.00
36828;BME280;22766;48.042;11.192;2023-11-21T04:35:50;94478.03;;;6.67;100.00
36828;BME280;22766;48.042;11.192;2023-11-21T04:38:17;94472.94;;;6.57;100.00
36828;BME280;22766;48.042;11.192;2023-11-21T04:40:45;94470.97;;;6.51;100.00
36828;BME280;22766;48.042;11.192;2023-11-21T04:43:12;94481.06;;;6.63;100.00
36828;BME280;22766;48.042;11.192;2023-11-21T04:45:39;94470.84;;;6.43;100.00
36828;BME280;22766;48.042;11.192;2023-11-21T04:48:07;94469.94;;;6.25;100.00
36828;BME280;22766;48.042;11.192;2023-11-21T04:50:34;94468.03;;;6.37;100.00
36828;BME280;22766;48.042;11.192;2023-11-21T04:53:01;94474.16;;;6.26;100.00
36828;BME280;22766;48.042;11.192;2023-11-21T04:55:28;94474.78;;;6.38;100.00
36828;BME280;22766;48.042;11.192;2023-11-21T04:57:55;94466.09;;;6.48;100.00
36828;BME280;22766;48.042;11.192;2023-11-21T05:00:22;94475.91;;;6.26;100.00
36828;BME280;22766;48.042;11.192;2023-11-21T05:02:49;94478.84;;;6.31;100.00
36828;BME280;22766;48.042;11.192;2023-11-21T05:05:16;94474.31;;;6.52;100.00
36828;BME280;22766;48.042;11.192;2023-11-21T05:07:44;94470.38;;;6.30;100.00
36828;BME280;22766;48.042;11.192;2023-11-21T05:10:11;94466.88;;;6.22;100.00
36828;BME280;22766;48.042;11.192;2023-11-21T05:12:40;94472.81;;;6.22;100.00
36828;BME280;22766;48.042;11.192;2023-11-21T05:15:07;94470.25;;;6.13;100.00
36828;BME280;22766;48.042;11.192;2023-11-21T05:17:38;94478.09;;;6.11;100.00
36828;BME280;22766;48.042;11.192;2023-11-21T05:20:13;94472.41;;;6.17;100.00
36828;BME280;22766;48.042;11.192;2023-11-21T05:22:40;94477.44;;;6.09;100.00
36828;BME280;22766;48.042;11.192;2023-11-21T05:25:08;94478.34;;;6.08;100.00
36828;BME280;22766;48.042;11.192;2023-11-21T05:27:35;94469.88;;;6.08;100.00
36828;BME280;22766;48.042;11.192;2023-11-21T05:30:03;94470.13;;;6.14;100.00
36828;BME280;22766;48.042;11.192;2023-11-21T05:32:40;94468.63;;;6.12;100.00
36828;BME280;22766;48.042;11.192;2023-11-21T05:35:09;94473.34;;;6.26;100.00
36828;BME280;22766;48.042;11.192;2023-11-21T05:37:38;94473.06;;;6.19;100.00
36828;BME280;22766;48.042;11.192;2023-11-21T05:40:07;94483.47;;;6.18;100.00
36828;BME280;22766;48.042;11.192;2023-11-21T05:42:34;94479.81;;;6.30;100.00
36828;BME280;22766;48.042;11.192;2023-11-21T05:45:02;94478.13;;;5.92;100.00
36828;BME280;22766;48.042;11.192;2023-11-21T05:47:44;94482.16;;;5.85;100.00
36828;BME280;22766;48.042;11.192;2023-11-21T05:50:15;94480.25;;;5.97;100.00
36828;BME280;22766;48.042;11.192;2023-11-21T05:52:43;94479.59;;;5.95;100.00
36828;BME280;22766;48.042;11.192;2023-11-21T05:55:10;94478.53;;;5.88;100.00
36828;BME280;22766;48.042;11.192;2023-11-21T05:57:38;94478.66;;;5.96;100.00
36828;BME280;22766;48.042;11.192;2023-11-21T06:00:07;94481.22;;;5.96;100.00
36828;BME280;22766;48.042;11.192;2023-11-21T06:02:39;94484.03;;;6.02;100.00
36828;BME280;22766;48.042;11.192;2023-11-21T06:05:07;94488.38;;;6.02;100.00
36828;BME280;22766;48.042;11.192;2023-11-21T06:07:34;94492.41;;;5.95;100.00
36828;BME280;22766;48.042;11.192;2023-11-21T06:10:05;94484.44;;;5.98;100.00
36828;BME280;22766;48.042;11.192;2023-11-21T06:12:33;94496.84;;;6.02;100.00
36828;BME280;22766;48.042;11.192;2023-11-21T06:15:05;94498.81;;;6.27;100.00
36828;BME280;22766;48.042;11.192;2023-11-21T06:17:35;94496.66;;;6.32;100.00
36828;BME280;22766;48.042;11.192;2023-11-21T06:20:08;94503.78;;;6.38;100.00
36828;BME280;22766;48.042;11.192;2023-11-21T06:22:42;94504.25;;;6.05;100.00
36828;BME280;22766;48.042;11.192;2023-11-21T06:25:11;94503.28;;;6.16;100.00
36828;BME280;22766;48.042;11.192;2023-11-21T06:27:44;94506.00;;;6.14;100.00
36828;BME280;22766;48.042;11.192;2023-11-21T06:30:17;94512.63;;;6.07;100.00
36828;BME280;22766;48.042;11.192;2023-11-21T06:32:46;94506.03;;;5.95;100.00
36828;BME280;22766;48.042;11.192;2023-11-21T06:35:14;94509.09;;;5.80;100.00
36828;BME280;22766;48.042;11.192;2023-11-21T06:37:44;94514.78;;;5.74;100.00
36828;BME280;22766;48.042;11.192;2023-11-21T06:40:18;94516.66;;;5.81;100.00
36828;BME280;22766;48.042;11.192;2023-11-21T06:42:46;94511.66;;;5.80;100.00
36828;BME280;22766;48.042;11.192;2023-11-21T06:45:15;94522.03;;;5.78;100.00
36828;BME280;22766;48.042;11.192;2023-11-21T06:47:42;94518.28;;;6.01;100.00
36828;BME280;22766;48.042;11.192;2023-11-21T06:50:09;94527.72;;;5.91;100.00
36828;BME280;22766;48.042;11.192;2023-11-21T06:52:36;94529.06;;;5.76;100.00
36828;BME280;22766;48.042;11.192;2023-11-21T06:55:03;94535.28;;;5.74;100.00
36828;BME280;22766;48.042;11.192;2023-11-21T06:57:31;94534.16;;;5.76;100.00
36828;BME280;22766;48.042;11.192;2023-11-21T06:59:58;94537.72;;;5.85;100.00
36828;BME280;22766;48.042;11.192;2023-11-21T07:02:25;94536.91;;;5.84;100.00
36828;BME280;22766;48.042;11.192;2023-11-21T07:04:52;94535.00;;;5.77;100.00
36828;BME280;22766;48.042;11.192;2023-11-21T07:07:19;94534.44;;;5.73;100.00
36828;BME280;22766;48.042;11.192;2023-11-21T07:09:46;94537.41;;;5.78;100.00
36828;BME280;22766;48.042;11.192;2023-11-21T07:12:14;94540.78;;;5.69;100.00
36828;BME280;22766;48.042;11.192;2023-11-21T07:14:41;94542.81;;;5.65;100.00
36828;BME280;22766;48.042;11.192;2023-11-21T07:17:11;94544.84;;;5.81;100.00
36828;BME280;22766;48.042;11.192;2023-11-21T07:19:38;94543.75;;;5.74;100.00
36828;BME280;22766;48.042;11.192;2023-11-21T07:22:06;94546.97;;;5.76;100.00
36828;BME280;22766;48.042;11.192;2023-11-21T07:24:32;94550.78;;;5.91;100.00
36828;BME280;22766;48.042;11.192;2023-11-21T07:26:59;94551.84;;;5.79;100.00
36828;BME280;22766;48.042;11.192;2023-11-21T07:29:27;94552.09;;;5.76;100.00
36828;BME280;22766;48.042;11.192;2023-11-21T07:31:56;94554.84;;;5.84;100.00
36828;BME280;22766;48.042;11.192;2023-11-21T07:34:23;94556.72;;;6.01;100.00
36828;BME280;22766;48.042;11.192;2023-11-21T07:36:50;94559.69;;;5.97;100.00
36828;BME280;22766;48.042;11.192;2023-11-21T07:39:17;94555.19;;;5.80;100.00
36828;BME280;22766;48.042;11.192;2023-11-21T07:41:44;94564.28;;;6.12;100.00
36828;BME280;22766;48.042;11.192;2023-11-21T07:44:16;94569.25;;;6.04;100.00
36828;BME280;22766;48.042;11.192;2023-11-21T07:46:43;94565.09;;;6.13;100.00
36828;BME280;22766;48.042;11.192;2023-11-21T07:49:11;94569.66;;;6.28;100.00
36828;BME280;22766;48.042;11.192;2023-11-21T07:51:38;94568.13;;;6.54;100.00
36828;BME280;22766;48.042;11.192;2023-11-21T07:54:05;94561.84;;;6.30;100.00
36828;BME280;22766;48.042;11.192;2023-11-21T07:56:32;94559.41;;;6.38;100.00
36828;BME280;22766;48.042;11.192;2023-11-21T07:58:59;94556.94;;;6.36;100.00
36828;BME280;22766;48.042;11.192;2023-11-21T08:01:25;94552.47;;;6.48;100.00
36828;BME280;22766;48.042;11.192;2023-11-21T08:03:54;94548.97;;;6.49;100.00
36828;BME280;22766;48.042;11.192;2023-11-21T08:06:23;94551.53;;;6.49;100.00
36828;BME280;22766;48.042;11.192;2023-11-21T08:08:52;94552.63;;;6.37;100.00
36828;BME280;22766;48.042;11.192;2023-11-21T08:11:18;94556.41;;;6.33;100.00
36828;BME280;22766;48.042;11.192;2023-11-21T08:13:48;94558.97;;;6.42;100.00
36828;BME280;22766;48.042;11.192;2023-11-21T08:16:15;94555.28;;;6.64;100.00
36828;BME280;22766;48.042;11.192;2023-11-21T08:18:43;94568.56;;;6.87;100.00
36828;BME280;22766;48.042;11.192;2023-11-21T08:21:12;94566.19;;;6.76;100.00
36828;BME280;22766;48.042;11.192;2023-11-21T08:23:39;94570.22;;;6.78;100.00
36828;BME280;22766;48.042;11.192;2023-11-21T08:26:06;94572.66;;;6.80;100.00
36828;BME280;22766;48.042;11.192;2023-11-21T08:28:33;94574.69;;;6.76;100.00
36828;BME280;22766;48.042;11.192;2023-11-21T08:31:01;94571.88;;;6.70;100.00
36828;BME280;22766;48.042;11.192;2023-11-21T08:33:28;94566.56;;;6.81;100.00
36828;BME280;22766;48.042;11.192;2023-11-21T08:35:55;94567.59;;;6.97;100.00
36828;BME280;22766;48.042;11.192;2023-11-21T08:38:21;94571.00;;;6.88;100.00
36828;BME280;22766;48.042;11.192;2023-11-21T08:40:49;94569.09;;;6.90;100.00
36828;BME280;22766;48.042;11.192;2023-11-21T08:43:16;94571.00;;;6.88;100.00
36828;BME280;22766;48.042;11.192;2023-11-21T08:45:43;94566.91;;;6.95;100.00
36828;BME280;22766;48.042;11.192;2023-11-21T08:48:09;94580.19;;;6.91;100.00
36828;BME280;22766;48.042;11.192;2023-11-21T08:50:38;94579.84;;;7.03;100.00
36828;BME280;22766;48.042;11.192;2023-11-21T08:53:05;94581.78;;;6.92;100.00
36828;BME280;22766;48.042;11.192;2023-11-21T08:55:32;94580.53;;;7.05;100.00
36828;BME280;22766;48.042;11.192;2023-11-21T08:58:04;94579.44;;;7.08;100.00
36828;BME280;22766;48.042;11.192;2023-11-21T09:00:32;94574.38;;;7.25;100.00
36828;BME280;22766;48.042;11.192;2023-11-21T09:03:01;94581.13;;;7.26;100.00
36828;BME280;22766;48.042;11.192;2023-11-21T09:05:28;94580.69;;;7.31;100.00
36828;BME280;22766;48.042;11.192;2023-11-21T09:07:55;94582.50;;;7.21;100.00
36828;BME280;22766;48.042;11.192;2023-11-21T09:10:22;94580.81;;;7.29;100.00
36828;BME280;22766;48.042;11.192;2023-11-21T09:12:50;94584.72;;;7.33;100.00
36828;BME280;22766;48.042;11.192;2023-11-21T09:15:18;94588.34;;;7.40;100.00
36828;BME280;22766;48.042;11.192;2023-11-21T09:17:47;94591.53;;;7.52;100.00
36828;BME280;22766;48.042;11.192;2023-11-21T09:20:14;94595.63;;;7.45;100.00
36828;BME280;22766;48.042;11.192;2023-11-21T09:22:42;94596.81;;;7.50;100.00
36828;BME280;22766;48.042;11.192;2023-11-21T09:25:11;94598.69;;;7.48;100.00
36828;BME280;22766;48.042;11.192;2023-11-21T09:27:39;94607.13;;;7.68;100.00
36828;BME280;22766;48.042;11.192;2023-11-21T09:30:07;94607.94;;;7.69;100.00
36828;BME280;22766;48.042;11.192;2023-11-21T09:32:40;94609.81;;;7.94;100.00
36828;BME280;22766;48.042;11.192;2023-11-21T09:35:08;94606.13;;;7.96;100.00
36828;BME280;22766;48.042;11.192;2023-11-21T09:37:35;94610.16;;;7.81;100.00
36828;BME280;22766;48.042;11.192;2023-11-21T09:40:06;94614.09;;;7.76;100.00
36828;BME280;22766;48.042;11.192;2023-11-21T09:42:43;94615.31;;;7.99;100.00
36828;BME280;22766;48.042;11.192;2023-11-21T09:45:20;94610.47;;;7.96;100.00
36828;BME280;22766;48.042;11.192;2023-11-21T09:47:48;94616.84;;;7.92;100.00
36828;BME280;22766;48.042;11.192;2023-11-21T09:50:17;94610.16;;;7.99;100.00
36828;BME280;22766;48.042;11.192;2023-11-21T09:55:16;94612.38;;;8.11;100.00
36828;BME280;22766;48.042;11.192;2023-11-21T09:57:47;94610.34;;;8.15;100.00
36828;BME280;22766;48.042;11.192;2023-11-21T10:00:15;94614.88;;;8.21;100.00
36828;BME280;22766;48.042;11.192;2023-11-21T10:02:44;94610.34;;;8.32;100.00
36828;BME280;22766;48.042;11.192;2023-11-21T10:05:11;94609.75;;;8.38;100.00
36828;BME280;22766;48.042;11.192;2023-11-21T10:07:39;94605.94;;;8.42;100.00
36828;BME280;22766;48.042;11.192;2023-11-21T10:10:08;94610.81;;;8.28;100.00
36828;BME280;22766;48.042;11.192;2023-11-21T10:12:35;94608.75;;;8.31;100.00
36828;BME280;22766;48.042;11.192;2023-11-21T10:15:03;94607.34;;;8.37;100.00
36828;BME280;22766;48.042;11.192;2023-11-21T10:17:38;94607.34;;;8.37;100.00
36828;BME280;22766;48.042;11.192;2023-11-21T10:20:12;94606.66;;;8.53;100.00
36828;BME280;22766;48.042;11.192;2023-11-21T10:22:41;94609.72;;;8.74;100.00
36828;BME280;22766;48.042;11.192;2023-11-21T10:25:12;94601.16;;;8.91;100.00
36828;BME280;22766;48.042;11.192;2023-11-21T10:27:43;94602.13;;;9.23;100.00
36828;BME280;22766;48.042;11.192;2023-11-21T10:30:13;94598.53;;;9.50;100.00
36828;BME280;22766;48.042;11.192;2023-11-21T10:32:39;94600.69;;;9.63;100.00
36828;BME280;22766;48.042;11.192;2023-11-21T10:35:08;94598.28;;;9.69;100.00
36828;BME280;22766;48.042;11.192;2023-11-21T10:37:40;94600.34;;;9.58;100.00
36828;BME280;22766;48.042;11.192;2023-11-21T10:40:08;94594.34;;;9.49;100.00
36828;BME280;22766;48.042;11.192;2023-11-21T10:42:39;94595.09;;;9.33;100.00
36828;BME280;22766;48.042;11.192;2023-11-21T10:45:07;94606.38;;;9.32;100.00
36828;BME280;22766;48.042;11.192;2023-11-21T10:47:42;94603.47;;;9.35;100.00
36828;BME280;22766;48.042;11.192;2023-11-21T10:50:10;94605.50;;;9.24;100.00
36828;BME280;22766;48.042;11.192;2023-11-21T10:52:41;94596.31;;;9.21;100.00
36828;BME280;22766;48.042;11.192;2023-11-21T10:55:20;94601.66;;;8.94;100.00
36828;BME280;22766;48.042;11.192;2023-11-21T10:57:49;94596.38;;;8.78;100.00
36828;BME280;22766;48.042;11.192;2023-11-21T11:00:18;94600.19;;;8.66;100.00
36828;BME280;22766;48.042;11.192;2023-11-21T11:02:52;94593.47;;;8.73;100.00
36828;BME280;22766;48.042;11.192;2023-11-21T11:05:23;94597.59;;;8.66;100.00
36828;BME280;22766;48.042;11.192;2023-11-21T11:10:28;94595.31;;;8.63;100.00
36828;BME280;22766;48.042;11.192;2023-11-21T11:12:56;94585.25;;;8.70;100.00
36828;BME280;22766;48.042;11.192;2023-11-21T11:15:25;94593.09;;;8.68;100.00
36828;BME280;22766;48.042;11.192;2023-11-21T11:17:54;94596.72;;;8.58;100.00
36828;BME280;22766;48.042;11.192;2023-11-21T11:20:29;94600.88;;;8.51;100.00
36828;BME280;22766;48.042;11.192;2023-11-21T11:23:09;94595.03;;;8.66;100.00
36828;BME280;22766;48.042;11.192;2023-11-21T11:28:35;94591.66;;;8.66;100.00
36828;BME280;22766;48.042;11.192;2023-11-21T11:34:05;94594.31;;;8.56;100.00
36828;BME280;22766;48.042;11.192;2023-11-21T11:36:40;94594.41;;;8.46;100.00
36828;BME280;22766;48.042;11.192;2023-11-21T11:39:38;94596.09;;;8.38;100.00
36828;BME280;22766;48.042;11.192;2023-11-21T11:42:12;94594.63;;;8.35;100.00
36828;BME280;22766;48.042;11.192;2023-11-21T11:47:14;94583.03;;;8.31;100.00
36828;BME280;22766;48.042;11.192;2023-11-21T11:52:43;94596.41;;;8.35;100.00
36828;BME280;22766;48.042;11.192;2023-11-21T11:55:15;94593.81;;;8.35;100.00
36828;BME280;22766;48.042;11.192;2023-11-21T12:02:57;94590.66;;;8.41;100.00
36828;BME280;22766;48.042;11.192;2023-11-21T12:05:26;94597.91;;;8.45;100.00
36828;BME280;22766;48.042;11.192;2023-11-21T12:08:02;94593.94;;;8.51;100.00
36828;BME280;22766;48.042;11.192;2023-11-21T12:10:35;94594.59;;;8.53;100.00
36828;BME280;22766;48.042;11.192;2023-11-21T12:13:07;94591.94;;;8.63;100.00
36828;BME280;22766;48.042;11.192;2023-11-21T12:15:35;94597.44;;;8.68;100.00
36828;BME280;22766;48.042;11.192;2023-11-21T12:18:03;94594.13;;;8.75;100.00
36828;BME280;22766;48.042;11.192;2023-11-21T12:20:30;94600.28;;;8.82;100.00
36828;BME280;22766;48.042;11.192;2023-11-21T12:23:00;94598.56;;;8.91;100.00
36828;BME280;22766;48.042;11.192;2023-11-21T12:25:28;94585.59;;;9.00;100.00
36828;BME280;22766;48.042;11.192;2023-11-21T12:27:56;94592.34;;;9.01;100.00
36828;BME280;22766;48.042;11.192;2023-11-21T12:30:26;94592.03;;;9.04;100.00
36828;BME280;22766;48.042;11.192;2023-11-21T12:32:57;94592.56;;;9.08;100.00
36828;BME280;22766;48.042;11.192;2023-11-21T12:35:26;94596.63;;;9.18;100.00
36828;BME280;22766;48.042;11.192;2023-11-21T12:37:57;94602.28;;;9.22;100.00
36828;BME280;22766;48.042;11.192;2023-11-21T12:40:24;94600.97;;;9.18;100.00
36828;BME280;22766;48.042;11.192;2023-11-21T12:42:53;94604.41;;;9.26;100.00
36828;BME280;22766;48.042;11.192;2023-11-21T12:45:22;94596.69;;;9.26;100.00
36828;BME280;22766;48.042;11.192;2023-11-21T12:47:50;94609.06;;;9.23;100.00
36828;BME280;22766;48.042;11.192;2023-11-21T12:50:22;94595.66;;;9.53;100.00
36828;BME280;22766;48.042;11.192;2023-11-21T12:52:51;94594.72;;;10.12;100.00
36828;BME280;22766;48.042;11.192;2023-11-21T12:55:21;94605.06;;;10.68;100.00
36828;BME280;22766;48.042;11.192;2023-11-21T12:57:55;94597.97;;;10.86;100.00
36828;BME280;22766;48.042;11.192;2023-11-21T13:00:33;94593.84;;;11.16;100.00
36828;BME280;22766;48.042;11.192;2023-11-21T13:03:07;94594.75;;;12.39;100.00
36828;BME280;22766;48.042;11.192;2023-11-21T13:05:37;94593.41;;;12.66;100.00
36828;BME280;22766;48.042;11.192;2023-11-21T13:08:17;94592.91;;;12.25;100.00
36828;BME280;22766;48.042;11.192;2023-11-21T13:10:52;94598.81;;;12.56;100.00
36828;BME280;22766;48.042;11.192;2023-11-21T13:13:21;94599.59;;;12.65;100.00
36828;BME280;22766;48.042;11.192;2023-11-21T13:18:24;94605.28;;;13.20;100.00
36828;BME280;22766;48.042;11.192;2023-11-21T13:21:00;94615.09;;;13.10;99.89
36828;BME280;22766;48.042;11.192;2023-11-21T13:23:29;94610.25;;;13.51;97.86